Time;durP1;ratioP1;P1;durP2;ratioP2;P2;SDS_P1;SDS_P2;PMS_P1;PMS_P2;Temp;Humidity;BMP_temperature;BMP_pressure;BME280_temperature;BME280_humidity;BME280_pressure;Samples;Min_cycle;Max_cycle;Signal;HPM_P1;HPM_P2
2022/10/01 00:02:08;;;;;;;44.13;27.30;;;9.40;1.00;;;10.03;100.00;99119.25;5043078;27;120230;-72
2022/10/01 00:04:38;;;;;;;37.90;25.67;;;9.40;1.00;;;10.10;100.00;99113.38;5043345;27;129893;-71
2022/10/01 00:07:13;;;;;;;36.55;25.42;;;9.40;1.00;;;10.15;100.00;99115.94;5042287;27;129742;-74
2022/10/01 00:09:42;;;;;;;39.15;26.50;;;9.50;1.00;;;10.19;100.00;99125.03;5043291;27;120764;-72
2022/10/01 00:12:14;;;;;;;36.17;25.17;;;9.50;1.00;;;10.22;100.00;99121.69;5027649;27;121314;-72
2022/10/01 00:14:43;;;;;;;38.03;26.13;;;9.50;1.00;;;10.23;100.00;99124.06;5042229;27;129744;-72
2022/10/01 00:17:11;;;;;;;39.30;25.55;;;9.50;1.00;;;10.22;100.00;99132.53;5042116;27;129783;-72
2022/10/01 00:19:40;;;;;;;36.42;24.60;;;9.50;1.00;;;10.22;100.00;99127.09;5042521;27;119531;-73
2022/10/01 00:22:10;;;;;;;35.70;24.50;;;9.50;1.00;;;10.23;100.00;99134.13;5027481;27;120159;-73
2022/10/01 00:24:39;;;;;;;36.67;24.42;;;9.40;1.00;;;10.24;100.00;99135.72;5042395;27;129922;-73
2022/10/01 00:27:09;;;;;;;36.85;24.25;;;9.50;1.00;;;10.24;100.00;99124.88;5042593;27;129460;-72
2022/10/01 00:29:38;;;;;;;37.33;25.20;;;9.40;1.00;;;10.25;100.00;99119.13;5044368;27;119759;-72
2022/10/01 00:32:08;;;;;;;38.80;25.75;;;9.40;1.00;;;10.21;100.00;99123.59;5042067;27;119974;-73
2022/10/01 00:34:37;;;;;;;39.58;26.27;;;9.40;1.00;;;10.15;100.00;99121.38;5043361;27;129848;-72
2022/10/01 00:37:09;;;;;;;39.30;27.33;;;9.40;1.00;;;10.10;100.00;99116.06;5041731;27;129348;-73
2022/10/01 00:39:39;;;;;;;37.70;26.25;;;9.40;1.00;;;10.08;100.00;99117.22;5042062;27;120033;-73
2022/10/01 00:42:18;;;;;;;38.38;27.67;;;9.40;1.00;;;10.03;100.00;99113.84;5042277;27;119391;-73
2022/10/01 00:44:48;;;;;;;38.38;25.35;;;9.40;1.00;;;9.99;100.00;99104.78;5041915;27;130068;-73
2022/10/01 00:47:27;;;;;;;43.25;28.40;;;9.40;1.00;;;9.90;100.00;99093.91;5054801;27;129925;-72
2022/10/01 00:50:02;;;;;;;41.03;27.55;;;9.30;1.00;;;9.80;100.00;99099.63;5062173;27;119463;-73
2022/10/01 00:52:33;;;;;;;38.00;26.10;;;9.30;1.00;;;9.65;100.00;99098.94;5030772;27;118487;-73
2022/10/01 00:55:10;;;;;;;40.72;27.23;;;9.20;1.00;;;9.55;100.00;99096.50;5061798;27;130499;-72
2022/10/01 00:57:40;;;;;;;42.70;26.30;;;9.20;1.00;;;9.47;100.00;99086.47;5046870;27;128117;-73
2022/10/01 01:00:12;;;;;;;38.25;26.05;;;9.20;1.00;;;9.46;100.00;99084.88;5042362;27;122305;-75
2022/10/01 01:02:41;;;;;;;38.60;25.98;;;9.20;1.00;;;9.46;100.00;99085.66;5061932;27;122619;-73
2022/10/01 01:05:12;;;;;;;37.75;24.45;;;9.20;1.00;;;9.43;100.00;99083.59;5062744;27;129680;-73
2022/10/01 01:07:46;;;;;;;41.42;25.60;;;9.20;1.00;;;9.39;100.00;99079.13;5047819;27;103428;-73
2022/10/01 01:10:21;;;;;;;38.95;27.23;;;9.20;1.00;;;9.38;100.00;99085.63;5061933;27;119803;-73
2022/10/01 01:13:12;;;;;;;40.25;26.52;;;9.10;1.00;;;9.39;100.00;99079.13;5027181;27;118543;-73
2022/10/01 01:15:52;;;;;;;37.92;26.13;;;9.10;1.00;;;9.40;100.00;99076.09;5026118;27;130508;-73
2022/10/01 01:18:29;;;;;;;39.85;25.60;;;9.20;1.00;;;9.47;100.00;99086.47;5041467;27;130320;-72
2022/10/01 01:21:11;;;;;;;;;;;9.20;1.00;;;9.50;100.00;99085.84;5023824;27;119995;-74
2022/10/01 01:24:22;;;;;;;35.72;24.52;;;9.20;1.00;;;9.64;100.00;99086.50;5041662;27;120108;-74
2022/10/01 01:27:22;;;;;;;35.85;25.05;;;9.20;1.00;;;9.77;100.00;99089.41;5039972;27;130329;-73
2022/10/01 01:30:03;;;;;;;37.50;24.67;;;9.20;1.00;;;9.79;100.00;99087.19;5042797;27;132372;-74
2022/10/01 01:32:54;;;;;;;38.03;24.60;;;9.20;1.00;;;9.80;100.00;99094.19;5041150;27;119979;-73
2022/10/01 01:35:31;;;;;;;36.30;25.25;;;9.20;1.00;;;9.85;100.00;99096.78;5041250;27;119843;-73
2022/10/01 01:38:03;;;;;;;35.60;23.42;;;9.20;1.00;;;9.86;100.00;99092.94;5023346;27;129894;-74
2022/10/01 01:40:36;;;;;;;37.78;26.38;;;9.20;1.00;;;9.83;100.00;99093.56;5025798;27;129341;-74
2022/10/01 01:43:11;;;;;;;40.03;24.98;;;9.20;1.00;;;9.68;100.00;99082.06;5024050;27;120085;-74
2022/10/01 01:45:43;;;;;;;34.78;23.52;;;9.20;1.00;;;9.59;100.00;99089.38;5041554;27;119972;-73
2022/10/01 01:48:13;;;;;;;38.50;24.70;;;9.10;1.00;;;9.53;100.00;99096.03;5039399;27;130618;-72
2022/10/01 01:50:50;;;;;;;33.92;23.52;;;9.10;1.00;;;9.47;100.00;99086.47;5040715;27;129503;-74
2022/10/01 01:53:19;;;;;;;31.92;22.33;;;9.10;1.00;;;9.41;100.00;99076.88;5039683;27;122525;-74
2022/10/01 01:55:49;;;;;;;35.83;25.27;;;9.10;1.00;;;9.37;100.00;99086.75;5009043;27;121812;-76
2022/10/01 01:58:18;;;;;;;37.83;24.17;;;9.10;1.00;;;9.43;100.00;99085.50;5040539;27;129771;-72
2022/10/01 02:00:51;;;;;;;33.85;22.95;;;9.10;1.00;;;9.39;100.00;99081.81;5040587;27;129447;-72
2022/10/01 02:03:22;;;;;;;37.15;24.13;;;9.00;1.00;;;9.37;100.00;99082.13;5022744;27;119879;-74
2022/10/01 02:06:05;;;;;;;33.15;23.27;;;9.00;1.00;;;9.35;100.00;99070.81;5043306;27;119532;-75
2022/10/01 02:08:40;;;;;;;33.97;23.48;;;9.00;1.00;;;9.34;100.00;99072.72;5040200;27;129813;-73
2022/10/01 02:11:25;;;;;;;32.80;23.17;;;9.00;1.00;;;9.28;100.00;99057.72;5044338;27;129559;-72
2022/10/01 02:14:21;;;;;;;33.72;22.35;;;9.00;1.00;;;9.26;100.00;99053.75;5025704;27;118500;-74
2022/10/01 02:17:00;;;;;;;33.97;23.10;;;9.00;1.00;;;9.28;100.00;99054.22;5025832;27;119936;-72
2022/10/01 02:19:36;;;;;;;35.28;22.50;;;9.00;1.00;;;9.28;100.00;99055.00;5021777;27;130509;-73
2022/10/01 02:22:12;;;;;;;34.60;23.00;;;9.00;1.00;;;9.28;100.00;99052.31;5040164;27;129975;-72
2022/10/01 02:24:47;;;;;;;35.25;21.73;;;9.00;1.00;;;9.27;100.00;99050.72;5040429;27;119923;-74
2022/10/01 02:27:21;;;;;;;36.03;24.50;;;8.90;1.00;;;9.26;100.00;99049.13;5025376;27;119081;-72
2022/10/01 02:29:50;;;;;;;34.20;23.50;;;9.00;1.00;;;9.27;100.00;99045.31;5039648;27;129829;-71
2022/10/01 02:32:22;;;;;;;33.45;23.27;;;9.00;1.00;;;9.26;100.00;99041.00;5039896;27;129760;-70
2022/10/01 02:34:53;;;;;;;32.35;22.50;;;9.00;1.00;;;9.27;100.00;99034.47;5025219;27;119106;-71
2022/10/01 02:37:25;;;;;;;38.22;24.17;;;9.00;1.00;;;9.30;100.00;99033.03;5040692;27;120125;-72
2022/10/01 02:39:57;;;;;;;32.70;23.30;;;9.00;1.00;;;9.31;100.00;99021.91;5039653;27;130939;-73
2022/10/01 02:42:29;;;;;;;32.15;22.27;;;9.00;1.00;;;9.32;100.00;99020.78;5024711;27;129262;-75
2022/10/01 02:45:02;;;;;;;32.72;22.83;;;9.10;1.00;;;9.37;100.00;99021.78;5024132;27;121627;-73
2022/10/01 02:47:37;;;;;;;35.75;23.33;;;9.00;1.00;;;9.42;100.00;99029.75;5024826;27;120910;-72
2022/10/01 02:50:08;;;;;;;36.45;23.10;;;9.10;1.00;;;9.47;100.00;99024.97;5024826;27;129430;-73
2022/10/01 02:52:44;;;;;;;33.42;22.70;;;9.10;1.00;;;9.48;100.00;99020.34;5024025;27;128222;-73
2022/10/01 02:55:16;;;;;;;30.10;19.63;;;9.10;1.00;;;9.46;100.00;99019.88;5039996;27;120385;-71
2022/10/01 02:57:45;;;;;;;32.38;21.83;;;9.10;1.00;;;9.41;100.00;99022.72;5039530;27;119768;-72
2022/10/01 03:00:20;;;;;;;32.38;21.77;;;9.10;1.00;;;9.44;100.00;99027.50;5049958;27;129949;-71
2022/10/01 03:02:50;;;;;;;32.03;21.52;;;9.20;1.00;;;9.46;100.00;99017.97;5060183;27;129557;-71
2022/10/01 03:05:20;;;;;;;32.03;22.08;;;9.20;1.00;;;9.48;100.00;99023.06;5044650;27;120222;-72
2022/10/01 03:07:48;;;;;;;30.50;21.50;;;9.20;1.00;;;9.47;100.00;99016.03;5060218;27;119387;-71
2022/10/01 03:10:17;;;;;;;33.35;21.63;;;9.20;1.00;;;9.48;100.00;99009.53;5058586;27;129801;-72
2022/10/01 03:12:47;;;;;;;30.90;20.77;;;9.20;1.00;;;9.50;100.00;99010.78;5059322;27;130062;-72
2022/10/01 03:15:19;;;;;;;35.38;21.85;;;9.20;1.00;;;9.44;100.00;99005.84;5041675;27;119625;-71
2022/10/01 03:17:53;;;;;;;29.58;20.55;;;9.20;1.00;;;9.46;100.00;98998.22;5059928;27;120308;-72
2022/10/01 03:20:25;;;;;;;31.90;20.55;;;9.20;1.00;;;9.50;100.00;98999.16;5059413;27;129944;-72
2022/10/01 03:22:54;;;;;;;28.42;20.83;;;9.20;1.00;;;9.49;100.00;98992.13;5059745;27;130395;-71
2022/10/01 03:25:22;;;;;;;29.55;21.30;;;9.20;1.00;;;9.43;100.00;98993.44;5059840;27;119483;-71
2022/10/01 03:27:53;;;;;;;28.85;20.10;;;9.20;1.00;;;9.50;100.00;98988.31;5059885;27;119919;-72
2022/10/01 03:30:22;;;;;;;29.10;19.98;;;9.20;1.00;;;9.50;100.00;98991.81;5059405;27;130842;-71
2022/10/01 03:32:52;;;;;;;32.78;21.88;;;9.20;1.00;;;9.51;100.00;98989.94;5059429;27;130403;-72
2022/10/01 03:35:20;;;;;;;29.38;21.25;;;9.20;1.00;;;9.53;100.00;98987.69;5058402;27;123336;-72
2022/10/01 03:37:49;;;;;;;30.08;20.70;;;9.20;1.00;;;9.54;100.00;98981.16;5044477;27;122155;-73
2022/10/01 03:40:18;;;;;;;30.00;21.73;;;9.20;1.00;;;9.57;100.00;98969.69;5059436;27;130052;-72
2022/10/01 03:42:47;;;;;;;28.52;20.10;;;9.20;1.00;;;9.56;100.00;98970.81;5061269;27;129324;-71
2022/10/01 03:45:15;;;;;;;27.45;20.25;;;9.20;1.00;;;9.56;100.00;98976.22;5041542;27;119550;-72
2022/10/01 03:47:44;;;;;;;30.23;20.80;;;9.20;1.00;;;9.58;100.00;98973.97;5059808;27;119401;-73
2022/10/01 03:50:14;;;;;;;29.52;20.77;;;9.20;1.00;;;9.59;100.00;98970.16;5061254;27;129500;-73
2022/10/01 03:52:45;;;;;;;31.65;20.88;;;9.20;1.00;;;9.60;100.00;98966.34;5059590;27;129444;-72
2022/10/01 03:55:14;;;;;;;29.15;20.58;;;9.20;1.00;;;9.55;100.00;98961.06;5059536;27;119490;-71
2022/10/01 03:57:43;;;;;;;29.70;19.95;;;9.20;1.00;;;9.53;100.00;98963.31;5058031;27;119584;-73
2022/10/01 04:00:13;;;;;;;32.03;21.05;;;9.20;1.00;;;9.51;100.00;98960.91;5039059;27;130605;-73
2022/10/01 04:02:41;;;;;;;29.85;20.92;;;9.20;1.00;;;9.54;100.00;98965.69;5058909;27;129727;-72
2022/10/01 04:05:11;;;;;;;32.47;21.65;;;9.20;1.00;;;9.59;100.00;98970.16;5043937;27;119869;-70
2022/10/01 04:07:42;;;;;;;29.13;20.05;;;9.20;1.00;;;9.54;100.00;98967.63;5059045;27;119264;-73
2022/10/01 04:10:11;;;;;;;30.38;20.67;;;9.20;1.00;;;9.55;100.00;98969.19;5043711;27;128731;-71
2022/10/01 04:12:40;;;;;;;29.35;21.10;;;9.20;1.00;;;9.55;100.00;98980.03;5059282;27;129738;-71
2022/10/01 04:15:10;;;;;;;30.50;21.50;;;9.20;1.00;;;9.62;100.00;98974.94;5041184;27;119922;-72
2022/10/01 04:17:39;;;;;;;34.58;21.25;;;9.20;1.00;;;9.62;100.00;98969.53;5037936;27;120054;-71
2022/10/01 04:20:08;;;;;;;26.02;19.50;;;9.20;1.00;;;9.56;100.00;98959.97;5023311;27;129873;-72
2022/10/01 04:22:41;;;;;;;29.13;19.92;;;9.20;1.00;;;9.57;100.00;98950.72;5038433;27;129629;-71
2022/10/01 04:25:11;;;;;;;31.92;20.75;;;9.20;1.00;;;9.52;100.00;98948.16;5037365;27;122661;-71
2022/10/01 04:27:39;;;;;;;30.25;21.67;;;9.20;1.00;;;9.48;100.00;98947.22;5042273;27;121964;-71
2022/10/01 04:30:10;;;;;;;26.20;19.20;;;9.20;1.00;;;9.45;100.00;98942.44;5058706;27;130328;-72
2022/10/01 04:32:39;;;;;;;28.98;21.20;;;9.20;1.00;;;9.47;100.00;98945.63;5058795;27;129616;-71
2022/10/01 04:35:10;;;;;;;26.92;19.92;;;9.20;1.00;;;9.49;100.00;98940.66;5059313;27;119930;-72
2022/10/01 04:37:39;;;;;;;27.85;19.45;;;9.20;1.00;;;9.49;100.00;98943.38;5059197;27;120803;-73
2022/10/01 04:40:09;;;;;;;27.35;18.85;;;9.20;1.00;;;9.53;100.00;98933.50;5058359;27;129784;-71
2022/10/01 04:42:41;;;;;;;26.38;18.77;;;9.20;1.00;;;9.47;100.00;98932.88;5047314;27;128324;-71
2022/10/01 04:45:12;;;;;;;29.00;19.90;;;9.20;1.00;;;9.51;100.00;98930.34;5053660;27;119904;-73
2022/10/01 04:47:48;;;;;;;26.83;19.05;;;9.20;1.00;;;9.51;100.00;98935.75;5041660;27;119303;-71
2022/10/01 04:50:17;;;;;;;23.02;17.60;;;9.20;1.00;;;9.54;100.00;98918.88;5040211;27;129851;-72
2022/10/01 04:52:52;;;;;;;25.20;18.45;;;9.30;1.00;;;9.58;100.00;98933.34;5041377;27;129439;-72
2022/10/01 04:55:21;;;;;;;26.55;19.10;;;9.30;1.00;;;9.66;100.00;98934.47;5041594;27;120127;-72
2022/10/01 04:57:50;;;;;;;26.00;18.58;;;9.30;1.00;;;9.76;100.00;98925.25;5026349;27;119165;-73
2022/10/01 05:00:23;;;;;;;27.88;18.98;;;9.30;1.00;;;9.84;100.00;98924.44;5044055;27;128835;-73
2022/10/01 05:02:52;;;;;;;27.63;18.95;;;9.40;1.00;;;9.92;100.00;98937.16;5055160;27;129119;-72
2022/10/01 05:05:26;;;;;;;25.52;17.27;;;9.40;1.00;;;10.04;100.00;98940.03;5063931;27;119759;-71
2022/10/01 05:07:56;;;;;;;28.40;19.45;;;9.50;1.00;;;10.13;100.00;98939.19;5046540;27;119623;-71
2022/10/01 05:10:25;;;;;;;27.05;18.58;;;9.50;1.00;;;10.15;100.00;98934.28;5043353;27;129984;-69
2022/10/01 05:12:53;;;;;;;25.38;18.38;;;9.50;1.00;;;10.16;100.00;98933.13;5040970;27;129578;-72
2022/10/01 05:15:22;;;;;;;27.92;18.13;;;9.50;1.00;;;10.22;100.00;98929.94;5039924;27;122061;-75
2022/10/01 05:17:51;;;;;;;24.58;16.90;;;9.60;1.00;;;10.26;100.00;98921.97;5043682;27;121788;-75
2022/10/01 05:20:24;;;;;;;25.25;17.77;;;9.60;1.00;;;10.24;100.00;98924.22;5041171;27;129795;-75
2022/10/01 05:22:55;;;;;;;27.38;18.88;;;9.60;1.00;;;10.25;100.00;98925.78;5049568;27;130872;-75
2022/10/01 05:25:24;;;;;;;28.00;19.02;;;9.50;1.00;;;10.30;100.00;98922.91;5043244;27;119622;-74
2022/10/01 05:27:52;;;;;;;26.02;18.92;;;9.60;1.00;;;10.36;100.00;98921.66;5061393;27;119700;-73
2022/10/01 05:30:22;;;;;;;27.30;18.90;;;9.60;1.00;;;10.34;100.00;98910.31;5061028;27;129929;-74
2022/10/01 05:32:56;;;;;;;25.85;18.98;;;9.60;1.00;;;10.31;100.00;98910.94;5061186;27;129604;-75
2022/10/01 05:35:25;;;;;;;29.63;19.15;;;9.60;1.00;;;10.35;100.00;98903.78;5039568;27;119794;-74
2022/10/01 05:37:56;;;;;;;30.52;20.77;;;9.60;1.00;;;10.37;100.00;98901.53;5025510;27;118777;-73
2022/10/01 05:40:26;;;;;;;28.38;20.05;;;9.60;1.00;;;10.33;100.00;98894.38;5039370;27;130309;-72
2022/10/01 05:42:55;;;;;;;28.95;19.58;;;9.60;1.00;;;10.35;100.00;98884.78;5040902;27;129443;-74
2022/10/01 05:45:24;;;;;;;29.48;18.75;;;9.70;1.00;;;10.26;100.00;98890.19;5040831;27;119645;-75
2022/10/01 05:48:01;;;;;;;28.70;19.35;;;9.60;1.00;;;10.32;100.00;98885.41;5041585;27;119446;-74
2022/10/01 05:50:32;;;;;;;26.08;18.58;;;9.70;1.00;;;10.35;100.00;98892.13;5060627;27;130102;-74
2022/10/01 05:53:03;;;;;;;27.02;17.95;;;9.70;1.00;;;10.41;100.00;98880.78;5060272;27;129716;-76
2022/10/01 05:55:33;;;;;;;24.30;17.60;;;9.80;1.00;;;10.57;100.00;98883.75;5054630;27;120186;-75
2022/10/01 05:58:04;;;;;;;27.00;18.50;;;9.90;1.00;;;10.66;100.00;98870.13;5061224;27;119463;-73
2022/10/01 06:00:35;;;;;;;24.90;16.25;;;9.90;1.00;;;10.68;100.00;98867.88;5055961;27;131550;-75
2022/10/01 06:03:05;;;;;;;24.17;17.13;;;9.90;1.00;;;10.75;100.00;98862.75;5032777;27;129645;-74
2022/10/01 06:05:37;;;;;;;21.75;13.95;;;10.00;1.00;;;10.70;100.00;98845.84;5041788;27;123462;-74
2022/10/01 06:08:09;;;;;;;17.17;13.32;;;10.00;1.00;;;10.54;100.00;98856.47;5033095;27;120932;-75
2022/10/01 06:10:38;;;;;;;17.75;12.63;;;9.90;1.00;;;10.51;100.00;98857.13;5044543;27;129198;-72
2022/10/01 06:13:07;;;;;;;17.15;12.65;;;9.90;99.90;;;10.51;100.00;98859.84;5051079;27;129698;-74
2022/10/01 06:15:39;;;;;;;18.17;13.13;;;9.90;99.90;;;10.51;100.00;98857.91;5025469;27;119147;-73
2022/10/01 06:18:10;;;;;;;15.43;11.40;;;9.90;99.90;;;10.41;100.00;98848.22;5040491;27;119503;-73
2022/10/01 06:20:40;;;;;;;18.13;12.60;;;9.80;99.90;;;10.47;100.00;98846.13;5025235;27;129388;-74
2022/10/01 06:23:13;;;;;;;19.10;12.90;;;9.90;99.90;;;10.52;100.00;98842.44;5032387;27;129532;-74
2022/10/01 06:25:42;;;;;;;17.52;12.52;;;9.90;99.90;;;10.53;100.00;98846.72;5025906;27;119131;-74
2022/10/01 06:28:14;;;;;;;16.02;11.98;;;9.90;99.90;;;10.57;100.00;98834.13;5024999;27;118872;-74
2022/10/01 06:30:43;;;;;;;16.08;11.27;;;9.90;99.90;;;10.60;100.00;98841.59;5007166;27;129008;-74
2022/10/01 06:33:14;;;;;;;15.98;11.60;;;9.90;99.90;;;10.61;100.00;98830.41;5039756;27;129639;-75
2022/10/01 06:35:45;;;;;;;14.43;10.05;;;10.00;99.90;;;10.53;100.00;98827.75;5010611;27;118802;-75
2022/10/01 06:38:18;;;;;;;12.05;9.70;;;9.90;99.90;;;10.43;100.00;98829.69;5052718;27;119394;-73
2022/10/01 06:40:52;;;;;;;13.68;10.20;;;9.90;99.90;;;10.32;100.00;98825.75;5039634;27;130009;-74
2022/10/01 06:43:21;;;;;;;15.60;11.23;;;9.80;99.90;;;10.33;100.00;98819.25;5039418;27;129212;-73
2022/10/01 06:45:56;;;;;;;16.30;11.43;;;9.90;99.90;;;10.34;100.00;98818.09;5039871;27;119447;-72
2022/10/01 06:48:24;;;;;;;16.70;11.27;;;9.90;99.90;;;10.49;100.00;98818.69;5024892;27;119159;-74
2022/10/01 06:50:55;;;;;;;16.83;11.23;;;9.90;99.90;;;10.64;100.00;98823.53;5038920;27;131105;-73
2022/10/01 06:53:27;;;;;;;15.27;11.80;;;10.10;99.90;;;10.66;100.00;98821.28;5039474;27;130461;-73
2022/10/01 06:55:56;;;;;;;18.48;14.43;;;10.00;99.90;;;10.58;100.00;98812.09;5039589;27;122221;-72
2022/10/01 06:58:26;;;;;;;21.50;15.50;;;10.00;99.90;;;10.59;100.00;98810.94;5021454;27;121855;-73
2022/10/01 07:01:00;;;;;;;23.48;17.52;;;10.00;99.90;;;10.65;100.00;98814.28;5039208;27;130422;-73
2022/10/01 07:03:29;;;;;;;24.40;17.55;;;10.00;99.90;;;10.69;100.00;98815.22;5037760;27;129994;-73
2022/10/01 07:06:03;;;;;;;17.50;13.05;;;10.10;99.90;;;10.61;100.00;98813.31;5042459;27;119719;-72
2022/10/01 07:08:33;;;;;;;15.02;10.90;;;10.00;99.90;;;10.61;100.00;98808.72;5039143;27;119581;-73
2022/10/01 07:11:03;;;;;;;13.07;9.15;;;10.00;99.90;;;10.63;100.00;98805.66;5023891;27;129734;-73
2022/10/01 07:13:32;;;;;;;14.77;10.63;;;10.10;99.90;;;10.74;100.00;98796.00;5039686;27;129618;-73
2022/10/01 07:16:03;;;;;;;14.45;10.48;;;10.20;99.90;;;10.84;100.00;98799.47;5039592;27;119804;-73
2022/10/01 07:18:32;;;;;;;13.20;9.60;;;10.20;99.90;;;10.84;100.00;98794.03;5041869;27;118844;-72
2022/10/01 07:21:01;;;;;;;14.60;9.85;;;10.20;99.90;;;10.76;100.00;98780.19;5038092;27;130538;-72
2022/10/01 07:23:30;;;;;;;13.55;9.63;;;10.20;99.90;;;10.78;100.00;98779.84;5039347;27;129869;-73
2022/10/01 07:26:00;;;;;;;13.90;10.85;;;10.20;99.90;;;10.79;100.00;98782.25;5038250;27;119873;-73
2022/10/01 07:28:28;;;;;;;17.55;12.13;;;10.20;99.90;;;10.83;100.00;98781.59;5023894;27;119061;-73
2022/10/01 07:31:01;;;;;;;19.75;12.52;;;10.20;99.90;;;10.85;100.00;98765.78;5020798;27;129727;-73
2022/10/01 07:33:29;;;;;;;16.42;12.20;;;10.20;99.90;;;10.91;100.00;98767.94;5039216;27;130142;-72
2022/10/01 07:36:01;;;;;;;17.05;12.45;;;10.30;99.90;;;10.97;100.00;98771.28;5039508;27;119683;-73
2022/10/01 07:38:29;;;;;;;17.63;11.85;;;10.30;99.90;;;10.94;100.00;98777.38;5039891;27;119629;-72
2022/10/01 07:41:01;;;;;;;15.43;11.32;;;10.20;99.90;;;10.92;100.00;98769.56;5038999;27;129963;-73
2022/10/01 07:43:31;;;;;;;15.73;11.57;;;10.20;99.90;;;10.91;100.00;98770.66;5038939;27;130545;-72
2022/10/01 07:46:00;;;;;;;14.00;10.02;;;10.30;99.90;;;10.90;100.00;98768.28;5038394;27;122206;-71
2022/10/01 07:48:29;;;;;;;15.80;10.40;;;10.30;99.90;;;10.99;100.00;98760.88;5007740;27;121680;-71
2022/10/01 07:50:58;;;;;;;14.48;10.48;;;10.30;99.90;;;11.09;100.00;98768.59;5038935;27;130362;-71
2022/10/01 07:53:27;;;;;;;15.10;11.52;;;10.40;99.90;;;11.12;100.00;98767.94;5039103;27;129284;-71
2022/10/01 07:55:56;;;;;;;14.27;10.68;;;10.40;99.90;;;11.12;100.00;98762.50;5039227;27;119664;-70
2022/10/01 07:58:26;;;;;;;15.20;10.27;;;10.40;99.90;;;11.05;100.00;98759.53;5039163;27;119857;-71
2022/10/01 08:00:57;;;;;;;14.45;10.35;;;10.40;99.90;;;11.08;100.00;98756.16;5020562;27;129864;-72
2022/10/01 08:03:25;;;;;;;12.23;9.80;;;10.40;99.90;;;11.13;100.00;98758.66;5038984;27;129721;-71
2022/10/01 08:05:55;;;;;;;13.95;10.88;;;10.40;99.90;;;11.20;100.00;98760.06;5042215;27;119669;-71
2022/10/01 08:08:24;;;;;;;14.10;10.50;;;10.40;99.90;;;11.24;100.00;98747.41;5020801;27;119538;-72
2022/10/01 08:10:52;;;;;;;12.80;9.68;;;10.50;99.90;;;11.27;100.00;98747.53;5037344;27;129956;-70
2022/10/01 08:13:23;;;;;;;13.27;9.55;;;10.50;99.90;;;11.17;100.00;98741.72;5038993;27;130262;-71
2022/10/01 08:15:54;;;;;;;13.93;9.75;;;10.40;99.90;;;11.12;100.00;98754.34;5041297;27;119497;-71
2022/10/01 08:18:23;;;;;;;13.43;9.73;;;10.40;99.90;;;11.20;100.00;98736.38;5042424;27;119488;-70
2022/10/01 08:20:52;;;;;;;12.38;9.65;;;10.50;99.90;;;11.27;100.00;98735.88;5041910;27;130624;-70
2022/10/01 08:23:21;;;;;;;13.30;9.70;;;10.50;99.90;;;11.08;100.00;98745.31;5042063;27;129589;-71
2022/10/01 08:25:50;;;;;;;14.20;10.50;;;10.40;99.90;;;11.01;100.00;98734.19;5042435;27;120671;-71
2022/10/01 08:28:19;;;;;;;13.38;10.10;;;10.40;99.90;;;11.12;100.00;98740.78;5042769;27;119234;-71
2022/10/01 08:30:48;;;;;;;14.15;9.55;;;10.40;99.90;;;11.07;100.00;98727.41;5041917;27;130311;-71
2022/10/01 08:33:18;;;;;;;12.07;9.18;;;10.40;99.90;;;10.98;100.00;98737.56;5041738;27;129227;-72
2022/10/01 08:35:47;;;;;;;13.38;9.55;;;10.40;99.90;;;10.87;100.00;98734.44;5040866;27;122252;-71
2022/10/01 08:38:16;;;;;;;13.18;9.80;;;10.30;99.90;;;10.89;100.00;98736.81;5042070;27;122378;-71
2022/10/01 08:40:50;;;;;;;11.70;8.77;;;10.30;99.90;;;10.90;100.00;98727.56;5041676;27;129808;-72
2022/10/01 08:43:31;;;;;;;13.35;9.48;;;10.30;99.90;;;10.81;100.00;98724.13;5041522;27;129845;-71
2022/10/01 08:46:05;;;;;;;12.27;9.10;;;10.30;99.90;;;10.77;100.00;98729.44;5041889;27;119743;-70
2022/10/01 08:48:57;;;;;;;12.02;9.50;;;10.30;99.90;;;10.82;100.00;98731.16;5027008;27;119310;-70
2022/10/01 08:51:32;;;;;;;13.70;10.38;;;10.40;99.90;;;10.92;100.00;98733.44;5041431;27;129877;-70
2022/10/01 08:54:18;;;;;;;10.50;8.07;;;10.40;99.90;;;10.87;100.00;98729.03;5042279;27;129663;-71
2022/10/01 08:56:49;;;;;;;15.80;11.40;;;10.30;99.90;;;10.93;100.00;98743.19;5044203;27;119238;-72
2022/10/01 08:59:35;;;;;;;16.17;13.13;;;10.40;99.90;;;11.06;100.00;98747.53;5026962;27;118256;-71
2022/10/01 09:02:15;;;;;;;18.17;14.70;;;10.40;99.90;;;11.12;100.00;98745.41;5040241;27;129844;-71
2022/10/01 09:04:46;;;;;;;17.00;12.82;;;10.40;99.90;;;11.17;100.00;98739.78;5044561;27;129127;-72
2022/10/01 09:07:49;;;;;;;15.20;12.02;;;10.40;99.90;;;11.21;100.00;98735.28;5041858;27;119638;-73
2022/10/01 09:10:41;;;;;;;15.52;11.95;;;10.40;99.90;;;11.28;100.00;98730.09;5041963;27;120247;-73
2022/10/01 09:13:48;;;;;;;16.48;12.57;;;10.40;99.90;;;11.37;100.00;98734.66;5041225;27;129918;-72
2022/10/01 09:16:24;;;;;;;15.45;11.85;;;10.50;99.90;;;11.30;100.00;98741.41;5041259;27;129677;-71
2022/10/01 09:19:06;;;;;;;;;;;10.40;99.90;;;11.13;100.00;98753.22;5042051;27;119688;-72
2022/10/01 09:21:52;;;;;;;10.15;7.72;;;10.30;99.90;;;11.04;100.00;98743.59;5041960;27;119132;-71
2022/10/01 09:24:41;;;;;;;13.38;10.30;;;10.30;99.90;;;11.18;100.00;98740.59;5026293;27;129388;-75
2022/10/01 09:27:15;;;;;;;11.82;8.70;;;10.40;99.90;;;11.17;100.00;98758.00;5040494;27;129482;-73
2022/10/01 09:29:52;;;;;;;24.40;18.35;;;10.30;99.90;;;11.08;100.00;98750.72;5039864;27;122419;-73
2022/10/01 09:32:26;;;;;;;12.80;9.52;;;10.30;99.90;;;11.17;100.00;98744.41;5041150;27;121755;-71
2022/10/01 09:34:59;;;;;;;8.98;6.00;;;10.30;99.90;;;11.13;100.00;98742.38;5040840;27;130147;-73
2022/10/01 09:37:44;;;;;;;7.10;5.38;;;10.30;99.90;;;11.21;100.00;98737.22;5041297;27;129934;-74
2022/10/01 09:40:23;;;;;;;11.70;7.65;;;10.40;99.90;;;11.32;100.00;98728.28;5041297;27;119658;-71
2022/10/01 09:42:53;;;;;;;51.00;34.65;;;10.50;99.90;;;11.48;100.00;98735.81;5041305;27;120063;-71
2022/10/01 09:45:23;;;;;;;11.23;7.47;;;10.60;99.90;;;11.59;100.00;98736.16;5040479;27;130754;-71
2022/10/01 09:47:57;;;;;;;9.43;6.05;;;10.70;99.90;;;11.44;100.00;98730.25;5041246;27;129550;-71
2022/10/01 09:50:39;;;;;;;9.63;6.18;;;10.60;99.90;;;11.25;100.00;98732.69;5040932;27;120093;-71
2022/10/01 09:53:20;;;;;;;12.77;7.78;;;10.60;99.90;;;11.37;100.00;98724.56;5041297;27;119499;-72
2022/10/01 09:55:54;;;;;;;8.30;5.55;;;10.70;99.90;;;11.31;100.00;98731.34;5058892;27;129885;-72
2022/10/01 09:58:27;;;;;;;7.13;4.90;;;10.50;99.90;;;11.27;100.00;98730.44;5060882;27;130058;-74
2022/10/01 10:00:58;;;;;;;16.15;10.65;;;10.50;99.90;;;11.14;100.00;98733.09;5046238;27;119309;-72
2022/10/01 10:03:30;;;;;;;20.30;13.82;;;10.50;99.90;;;11.25;100.00;98725.34;5060807;27;119662;-76
2022/10/01 10:06:00;;;;;;;39.70;28.98;;;10.50;99.90;;;11.41;100.00;98733.63;5045077;27;129260;-72
2022/10/01 10:08:33;;;;;;;10.80;6.50;;;10.70;99.90;;;11.44;100.00;98730.25;5045522;27;129095;-77
2022/10/01 10:11:06;;;;;;;22.40;15.68;;;10.60;99.90;;;11.28;100.00;98732.00;5060898;27;119868;-74
2022/10/01 10:13:37;;;;;;;15.65;11.43;;;10.40;99.90;;;11.19;100.00;98728.56;5061862;27;121012;-72
2022/10/01 10:16:23;;;;;;;10.43;7.82;;;10.30;99.90;;;10.98;100.00;98734.84;5045898;27;129330;-75
2022/10/01 10:18:55;;;;;;;6.32;3.95;;;10.30;99.90;;;11.09;100.00;98733.28;5060892;27;129545;-74
2022/10/01 10:21:28;;;;;;;17.40;12.93;;;10.40;99.90;;;11.11;100.00;98735.69;5059298;27;122786;-75
2022/10/01 10:24:01;;;;;;;32.67;21.63;;;10.40;99.90;;;11.18;100.00;98733.22;5056939;27;122617;-74
2022/10/01 10:26:37;;;;;;;28.90;18.25;;;10.50;99.90;;;11.22;100.00;98730.63;5040618;27;129871;-74
2022/10/01 10:29:13;;;;;;;12.85;8.60;;;10.40;99.90;;;11.22;100.00;98736.06;5040019;27;129690;-72